LSGG/GVA METAR and TAF weather

Enter ICAO airport designator
Station Type Date Time Source
LSGG METAR 2020/06/03 16:20 UTC NOAA

LSGG 031620Z 22007KT 170V250 9999 FEW050TCU SCT060 BKN080 25/10 Q1004 NOSIG


Station Type Date Time Source
LSGG Decoded METAR 2020/06/03 16:20 UTC NOAA

Geneve-Cointrin, Switzerland (LSGG) 46-15N 006-08E 416M
Jun 03, 2020 - 12:20 PM EDT / 2020.06.03 1620 UTC
Wind: from the SW (220 degrees) at 8 MPH (7 KT) (direction variable):0
Visibility: greater than 7 mile(s):0
Sky conditions: mostly cloudy
Weather: Towering cumulus clouds observed
Temperature: 77 F (25 C)
Dew Point: 50 F (10 C)
Relative Humidity: 38%
Pressure (altimeter): 29.65 in. Hg (1004 hPa)
ob: LSGG 031620Z 22007KT 170V250 9999 FEW050TCU SCT060 BKN080 25/10 Q1004 NOSIG
cycle: 16

Station Type Date Time Source
LSGG TAF 2020/06/03 15:33 UTC NOAA

TAF TAF LSGG 031425Z 0315/0421 26005KT 9999 FEW040 SCT080 TX24/0315Z TN14/0405Z TX19/0415Z
TEMPO 0317/0319 26015G30KT TSRA SCT060CB
TEMPO 0400/0406 22015G25KT TSRA SCT050CB
TEMPO 0417/0421 22015KT TS FEW060CB

Example: see airport list